Time;durP1;ratioP1;P1;durP2;ratioP2;P2;SDS_P1;SDS_P2;PMS_P1;PMS_P2;Temp;Humidity;BMP_temperature;BMP_pressure;BME280_temperature;BME280_humidity;BME280_pressure;Samples;Min_cycle;Max_cycle;Signal;HPM_P1;HPM_P2
2023/01/03 00:01:50;;;;;;;71.80;41.30;;;;;;;0.95;100.00;101628.09;107679;1262;71650;-72
2023/01/03 00:04:20;;;;;;;66.20;39.90;;;;;;;0.90;100.00;101630.40;107496;1275;67764;-72
2023/01/03 00:06:51;;;;;;;63.60;40.10;;;;;;;0.88;100.00;101629.40;107343;1266;73706;-71
2023/01/03 00:09:23;;;;;;;69.50;41.80;;;;;;;0.86;100.00;101631.33;107498;1266;57466;-71
2023/01/03 00:15:18;;;;;;;68.40;41.40;;;;;;;0.83;100.00;101633.09;107195;1268;73525;-74
2023/01/03 00:17:46;;;;;;;71.30;42.60;;;;;;;0.82;100.00;101628.66;107277;1272;70306;-72
2023/01/03 00:20:13;;;;;;;66.00;40.60;;;;;;;0.81;100.00;101633.81;107414;1262;69431;-72
2023/01/03 00:22:41;;;;;;;65.30;40.60;;;;;;;0.85;100.00;101637.17;107551;1263;73802;-71
2023/01/03 00:25:08;;;;;;;69.00;42.20;;;;;;;0.90;100.00;101635.38;107530;1262;60824;-71
2023/01/03 00:27:36;;;;;;;64.60;38.60;;;;;;;0.90;100.00;101634.86;107435;1265;61234;-72
2023/01/03 00:30:04;;;;;;;66.90;35.50;;;;;;;0.86;100.00;101635.45;107542;1264;71891;-71
2023/01/03 00:32:32;;;;;;;66.50;33.80;;;;;;;0.89;100.00;101636.25;107594;1263;71414;-71
2023/01/03 00:34:59;;;;;;;65.60;35.70;;;;;;;0.85;100.00;101638.21;107483;1268;67715;-71
2023/01/03 00:37:32;;;;;;;70.70;36.20;;;;;;;0.79;100.00;101637.80;107503;1267;71785;-71
2023/01/03 00:39:59;;;;;;;66.60;36.10;;;;;;;0.68;100.00;101641.40;107521;1265;60676;-72
2023/01/03 00:42:27;;;;;;;73.30;39.50;;;;;;;0.64;100.00;101641.81;107508;1264;59734;-71
2023/01/03 00:44:54;;;;;;;70.50;41.10;;;;;;;0.61;100.00;101641.68;107395;1265;72125;-72
2023/01/03 00:47:22;;;;;;;65.00;40.50;;;;;;;0.64;100.00;101643.36;107626;1263;71223;-71
2023/01/03 00:49:49;;;;;;;67.40;40.70;;;;;;;0.62;100.00;101641.67;107400;1264;68469;-72
2023/01/03 00:52:16;;;;;;;63.70;39.80;;;;;;;0.63;100.00;101638.57;107501;1260;74271;-72
2023/01/03 00:54:44;;;;;;;66.40;39.60;;;;;;;0.59;100.00;101634.70;107512;1264;59965;-70
2023/01/03 00:57:11;;;;;;;57.00;32.20;;;;;;;0.53;100.00;101635.14;107509;1261;61037;-72
2023/01/03 00:59:39;;;;;;;75.90;44.70;;;;;;;0.41;100.00;101632.58;107408;1267;73381;-71
2023/01/03 01:02:06;;;;;;;67.90;40.10;;;;;;;0.14;100.00;101641.72;107616;1262;68845;-71
2023/01/03 01:04:34;;;;;;;67.80;38.10;;;;;;;0.21;100.00;101641.80;107549;1262;67908;-71
2023/01/03 01:07:03;;;;;;;68.20;36.40;;;;;;;0.06;100.00;101637.73;107496;1262;72941;-72
2023/01/03 01:09:34;;;;;;;74.60;41.80;;;;;;;-0.10;100.00;101638.64;107322;1266;62687;-72
2023/01/03 01:12:03;;;;;;;72.90;42.90;;;;;;;-0.26;100.00;101642.10;107494;1265;61216;-72
2023/01/03 01:14:32;;;;;;;67.70;39.10;;;;;;;-0.26;100.00;101639.87;107317;1265;73519;-71
2023/01/03 01:17:03;;;;;;;72.90;42.90;;;;;;;-0.23;100.00;101635.55;107646;1262;71202;-73
2023/01/03 01:19:35;;;;;;;69.80;42.40;;;;;;;-0.19;100.00;101624.04;107408;1265;69596;-71
2023/01/03 01:22:03;;;;;;;70.50;39.90;;;;;;;-0.20;100.00;101618.73;107486;1263;74248;-71
2023/01/03 01:24:31;;;;;;;72.20;42.90;;;;;;;-0.34;100.00;101615.83;107505;1262;61047;-73
2023/01/03 01:26:59;;;;;;;72.80;43.10;;;;;;;-0.29;100.00;101619.03;107230;1263;61500;-72
2023/01/03 01:29:27;;;;;;;76.20;45.80;;;;;;;-0.27;100.00;101612.65;107451;1262;73420;-72
2023/01/03 01:31:54;;;;;;;80.70;44.60;;;;;;;-0.17;100.00;101614.08;107629;1264;69713;-72
2023/01/03 01:34:22;;;;;;;81.80;43.20;;;;;;;-0.09;100.00;101603.00;107371;1268;69676;-71
2023/01/03 01:36:50;;;;;;;80.80;43.00;;;;;;;-0.03;100.00;101604.80;107301;1266;72604;-71
2023/01/03 01:39:21;;;;;;;79.70;41.30;;;;;;;-0.01;100.00;101603.58;107486;1266;61425;-71
2023/01/03 01:44:55;;;;;;;74.50;41.00;;;;;;;0.09;100.00;101601.20;107497;1270;71551;-71
2023/01/03 01:47:49;;;;;;;76.20;40.20;;;;;;;0.13;100.00;101599.09;107679;1253;69761;-74
2023/01/03 01:50:20;;;;;;;68.70;37.50;;;;;;;0.20;100.00;101594.52;107725;1258;71031;-73
2023/01/03 01:53:00;;;;;;;74.90;39.70;;;;;;;0.25;100.00;101595.14;107595;1266;71370;-72
2023/01/03 01:55:38;;;;;;;76.70;39.80;;;;;;;0.37;100.00;101593.77;107770;1256;60436;-72
2023/01/03 01:58:08;;;;;;;81.20;43.10;;;;;;;0.34;100.00;101594.65;107636;1265;61067;-71
2023/01/03 02:00:36;;;;;;;80.60;39.60;;;;;;;0.34;100.00;101596.03;107453;1269;70454;-72
2023/01/03 02:03:05;;;;;;;72.50;38.40;;;;;;;0.35;100.00;101593.96;107251;1267;71275;-72
2023/01/03 02:05:40;;;;;;;71.70;39.10;;;;;;;0.35;100.00;101597.89;107351;1266;69643;-71
2023/01/03 02:08:07;;;;;;;76.10;38.40;;;;;;;0.45;100.00;101600.13;107432;1269;74180;-71
2023/01/03 02:11:10;;;;;;;62.70;37.70;;;;;;;0.44;100.00;101608.70;107544;1263;60138;-72
2023/01/03 02:14:14;;;;;;;60.60;34.10;;;;;;;0.46;100.00;101612.10;107489;1264;60341;-72
2023/01/03 02:17:28;;;;;;;69.10;36.90;;;;;;;0.48;100.00;101617.21;107578;1257;74565;-71
2023/01/03 02:20:05;;;;;;;63.70;35.30;;;;;;;0.49;100.00;101619.77;107689;1257;69298;-71
2023/01/03 02:23:20;;;;;;;64.00;34.00;;;;;;;0.50;100.00;101626.27;107533;1268;69630;-71
2023/01/03 02:26:11;;;;;;;59.50;32.40;;;;;;;0.49;100.00;101622.17;107401;1261;72569;-71
2023/01/03 02:29:00;;;;;;;72.50;37.90;;;;;;;0.44;100.00;101618.49;107665;1261;60816;-71
2023/01/03 02:31:43;;;;;;;64.70;34.60;;;;;;;0.39;100.00;101624.55;107558;1261;59519;-70
2023/01/03 02:34:45;;;;;;;61.00;32.40;;;;;;;0.39;100.00;101628.84;107326;1258;71602;-71
2023/01/03 02:37:39;;;;;;;61.70;34.60;;;;;;;0.29;100.00;101626.77;107634;1263;68662;-70
2023/01/03 02:40:41;;;;;;;62.00;33.80;;;;;;;0.24;100.00;101630.42;107552;1270;70803;-72
2023/01/03 02:43:29;;;;;;;67.20;36.80;;;;;;;0.21;100.00;101634.75;107557;1262;70843;-70
2023/01/03 02:46:29;;;;;;;64.30;38.40;;;;;;;0.07;100.00;101626.41;107515;1270;61573;-74
2023/01/03 02:49:07;;;;;;;67.50;40.90;;;;;;;0.04;100.00;101625.94;107528;1267;60138;-72
2023/01/03 02:51:51;;;;;;;65.50;41.20;;;;;;;0.05;100.00;101631.77;107517;1266;72148;-71
2023/01/03 02:54:26;;;;;;;63.20;34.90;;;;;;;-0.11;100.00;101630.77;107598;1264;70223;-73
2023/01/03 02:57:10;;;;;;;64.30;36.10;;;;;;;-0.11;100.00;101622.54;107480;1262;69661;-72
2023/01/03 02:59:57;;;;;;;66.80;40.40;;;;;;;-0.29;100.00;101625.88;107536;1269;71722;-73
2023/01/03 03:02:31;;;;;;;72.30;40.90;;;;;;;-0.46;100.00;101624.20;107523;1269;61245;-71
2023/01/03 03:05:01;;;;;;;64.70;40.60;;;;;;;-0.43;100.00;101621.61;107501;1258;61570;-72
2023/01/03 03:07:35;;;;;;;67.50;39.70;;;;;;;-0.48;100.00;101623.37;107510;1264;71427;-71
2023/01/03 03:13:12;;;;;;;67.10;38.50;;;;;;;-0.33;100.00;101634.48;107387;1270;69092;-72
2023/01/03 03:15:59;;;;;;;68.70;38.50;;;;;;;-0.33;100.00;101633.61;107422;1268;70126;-72
2023/01/03 03:18:59;;;;;;;61.20;36.10;;;;;;;-0.37;100.00;101629.73;107479;1262;61130;-71
2023/01/03 03:30:09;;;;;;;71.00;42.10;;;;;;;-0.51;100.00;101651.48;107436;1267;70013;-71
2023/01/03 03:32:38;;;;;;;68.90;40.70;;;;;;;-0.43;100.00;101660.27;107605;1257;73943;-72
2023/01/03 03:35:10;;;;;;;64.50;40.10;;;;;;;-0.39;100.00;101664.86;107346;1269;62045;-72
2023/01/03 03:37:41;;;;;;;69.20;41.40;;;;;;;-0.32;100.00;101664.95;107400;1265;58623;-73
2023/01/03 03:46:15;;;;;;;69.20;41.40;;;;;;;-0.18;100.00;101664.95;107517;1262;70048;-74
2023/01/03 03:52:00;;;;;;;72.20;42.60;;;;;;;-0.37;100.00;101670.65;107478;1262;62542;-73
2023/01/03 03:54:33;;;;;;;70.40;40.80;;;;;;;-0.31;100.00;101673.15;107463;1266;61444;-72
2023/01/03 03:57:26;;;;;;;66.00;39.70;;;;;;;-0.25;100.00;101674.44;107420;1266;71946;-71
2023/01/03 04:00:05;;;;;;;67.80;40.40;;;;;;;-0.19;100.00;101672.14;107549;1258;72137;-72
2023/01/03 04:02:41;;;;;;;71.80;38.90;;;;;;;-0.17;100.00;101672.64;107318;1265;70303;-71
2023/01/03 04:05:11;;;;;;;71.90;41.80;;;;;;;-0.15;100.00;101673.48;107443;1269;73669;-74
2023/01/03 04:07:39;;;;;;;75.70;41.60;;;;;;;-0.11;100.00;101680.42;107475;1262;59641;-72
2023/01/03 04:10:08;;;;;;;75.90;41.80;;;;;;;-0.07;100.00;101680.38;107338;1269;59625;-73
2023/01/03 04:12:36;;;;;;;74.90;41.40;;;;;;;-0.05;100.00;101685.66;107495;1271;70736;-74
2023/01/03 04:15:05;;;;;;;71.40;41.50;;;;;;;-0.03;100.00;101686.15;107536;1259;72509;-73
2023/01/03 04:17:33;;;;;;;81.50;43.50;;;;;;;-0.03;100.00;101688.03;107385;1265;70776;-71
2023/01/03 04:20:00;;;;;;;71.70;40.00;;;;;;;-0.05;100.00;101690.11;107437;1265;74441;-71
2023/01/03 04:22:28;;;;;;;75.20;40.90;;;;;;;-0.06;100.00;101692.52;107531;1270;62067;-72
2023/01/03 04:24:55;;;;;;;72.40;39.80;;;;;;;-0.08;100.00;101689.13;107470;1261;58555;-71
2023/01/03 04:27:23;;;;;;;72.90;39.20;;;;;;;-0.04;100.00;101690.96;107520;1261;73521;-70
2023/01/03 04:29:50;;;;;;;83.50;45.50;;;;;;;0.04;100.00;101696.33;107593;1263;69400;-69
2023/01/03 04:32:18;;;;;;;70.30;38.60;;;;;;;0.06;100.00;101700.95;107428;1271;70386;-70
2023/01/03 04:34:45;;;;;;;76.40;42.20;;;;;;;0.06;100.00;101708.98;107244;1265;71742;-70
2023/01/03 04:37:12;;;;;;;68.50;39.40;;;;;;;0.08;100.00;101709.98;107450;1263;62050;-71
2023/01/03 04:39:40;;;;;;;65.50;38.90;;;;;;;0.12;100.00;101711.66;107366;1270;60869;-72
2023/01/03 04:44:53;;;;;;;69.10;40.50;;;;;;;0.07;100.00;101709.84;107420;1266;70204;-72
2023/01/03 04:47:20;;;;;;;65.50;41.10;;;;;;;0.04;100.00;101714.83;107408;1261;68919;-71
2023/01/03 04:49:48;;;;;;;70.50;40.20;;;;;;;0.03;100.00;101713.98;107367;1270;73417;-72
2023/01/03 04:52:16;;;;;;;69.50;39.70;;;;;;;-0.04;100.00;101715.27;107365;1262;59993;-71
2023/01/03 04:54:43;;;;;;;67.60;41.20;;;;;;;-0.09;100.00;101719.95;107481;1272;61044;-71
2023/01/03 04:57:11;;;;;;;64.70;40.00;;;;;;;-0.10;100.00;101724.93;107517;1266;72120;-71
2023/01/03 04:59:38;;;;;;;72.30;40.30;;;;;;;-0.06;100.00;101720.44;107524;1262;71217;-73
2023/01/03 05:02:06;;;;;;;69.70;39.10;;;;;;;-0.03;100.00;101725.72;107368;1261;70013;-71
2023/01/03 05:04:33;;;;;;;74.40;45.20;;;;;;;-0.07;100.00;101723.36;107486;1262;72835;-71
2023/01/03 05:07:01;;;;;;;82.60;51.10;;;;;;;-0.12;100.00;101722.73;107513;1265;60425;-71
2023/01/03 05:09:28;;;;;;;74.20;45.80;;;;;;;-0.15;100.00;101723.98;107512;1265;59948;-72
2023/01/03 05:11:56;;;;;;;95.70;52.10;;;;;;;-0.13;100.00;101727.71;107536;1265;73467;-71
2023/01/03 05:14:23;;;;;;;119.90;64.20;;;;;;;-0.06;100.00;101730.55;107774;1260;69994;-71
2023/01/03 05:16:50;;;;;;;76.20;45.60;;;;;;;-0.06;100.00;101731.23;107587;1261;68443;-72
2023/01/03 05:19:19;;;;;;;56.40;32.50;;;;;;;-0.04;100.00;101740.80;107567;1258;71469;-71
2023/01/03 05:27:18;;;;;;;72.50;40.20;;;;;;;-0.42;100.00;101741.23;107566;1270;70854;-73
2023/01/03 05:29:48;;;;;;;71.50;38.60;;;;;;;-0.43;100.00;101743.63;107690;1267;72069;-76
2023/01/03 05:32:16;;;;;;;80.30;43.80;;;;;;;-0.44;100.00;101740.39;107547;1262;70239;-71
2023/01/03 05:34:43;;;;;;;76.10;44.40;;;;;;;-0.40;100.00;101745.14;107580;1261;72677;-72
2023/01/03 05:37:10;;;;;;;77.70;43.20;;;;;;;-0.36;100.00;101748.34;107574;1263;61136;-70
2023/01/03 05:39:38;;;;;;;77.60;43.40;;;;;;;-0.34;100.00;101740.27;107597;1266;59128;-71
2023/01/03 05:42:06;;;;;;;73.80;41.70;;;;;;;-0.28;100.00;101736.45;107517;1271;73149;-71
2023/01/03 05:44:33;;;;;;;74.10;41.90;;;;;;;-0.20;100.00;101752.46;107641;1262;69929;-72
2023/01/03 05:47:03;;;;;;;58.70;32.20;;;;;;;-0.15;100.00;101759.09;107498;1263;70299;-71
2023/01/03 05:49:30;;;;;;;61.10;32.20;;;;;;;-0.15;100.00;101751.38;107361;1265;74079;-69
2023/01/03 05:51:58;;;;;;;65.80;36.20;;;;;;;-0.25;100.00;101753.70;107631;1270;63225;-69
2023/01/03 05:54:25;;;;;;;78.10;40.80;;;;;;;-0.39;100.00;101763.79;107574;1265;61624;-70
2023/01/03 05:56:53;;;;;;;77.30;42.10;;;;;;;-0.50;100.00;101767.66;107612;1257;70111;-69
2023/01/03 05:59:21;;;;;;;84.40;48.60;;;;;;;-0.53;100.00;101771.97;107700;1268;72245;-70
2023/01/03 06:01:49;;;;;;;80.40;48.70;;;;;;;-0.49;100.00;101773.46;107422;1266;71133;-71
2023/01/03 06:04:17;;;;;;;93.10;48.30;;;;;;;-0.45;100.00;101776.52;107416;1268;73478;-71
2023/01/03 06:06:44;;;;;;;86.80;46.00;;;;;;;-0.42;100.00;101776.30;107570;1253;62321;-70
2023/01/03 06:09:12;;;;;;;78.10;39.60;;;;;;;-0.40;100.00;101782.96;107618;1262;59247;-70
2023/01/03 06:11:40;;;;;;;83.50;44.20;;;;;;;-0.45;100.00;101786.80;107544;1264;72676;-70
2023/01/03 06:14:07;;;;;;;79.20;44.30;;;;;;;-0.46;100.00;101785.95;107703;1262;70931;-71
2023/01/03 06:19:20;;;;;;;71.70;40.30;;;;;;;-0.38;100.00;101793.56;107530;1262;71747;-70
2023/01/03 06:21:49;;;;;;;78.80;44.50;;;;;;;-0.35;100.00;101801.23;107471;1262;59768;-69
2023/01/03 06:24:16;;;;;;;87.40;41.90;;;;;;;-0.32;100.00;101807.36;107541;1262;59903;-70
2023/01/03 06:26:44;;;;;;;84.20;42.50;;;;;;;-0.31;100.00;101807.52;107544;1262;72499;-71
2023/01/03 06:29:11;;;;;;;91.50;48.60;;;;;;;-0.28;100.00;101810.75;107654;1263;69829;-70
2023/01/03 06:31:39;;;;;;;91.60;46.50;;;;;;;-0.20;100.00;101811.54;107544;1259;70443;-71
2023/01/03 06:34:06;;;;;;;91.60;48.40;;;;;;;-0.15;100.00;101814.21;107527;1264;72194;-70
2023/01/03 06:36:35;;;;;;;69.30;35.70;;;;;;;-0.10;100.00;101814.17;107503;1268;60266;-70
2023/01/03 06:39:02;;;;;;;78.80;42.30;;;;;;;-0.05;100.00;101814.61;107449;1265;60593;-71
2023/01/03 06:41:30;;;;;;;65.30;34.90;;;;;;;-0.15;100.00;101816.61;107378;1272;70612;-74
2023/01/03 06:43:57;;;;;;;80.50;41.90;;;;;;;-0.20;100.00;101820.44;107595;1257;69225;-72
2023/01/03 06:54:55;;;;;;;122.70;63.30;;;;;;;-0.52;100.00;101829.80;107480;1255;58235;-71
2023/01/03 06:57:22;;;;;;;151.30;73.80;;;;;;;-0.58;100.00;101831.91;107509;1260;73533;-72
2023/01/03 06:59:54;;;;;;;163.10;77.60;;;;;;;-0.67;100.00;101836.27;107605;1259;72580;-72
2023/01/03 07:02:22;;;;;;;132.30;66.60;;;;;;;-0.60;100.00;101837.23;107472;1262;69185;-72
2023/01/03 07:04:49;;;;;;;147.20;71.20;;;;;;;-0.57;100.00;101836.34;107456;1272;73365;-71
2023/01/03 07:07:17;;;;;;;147.60;74.20;;;;;;;-0.45;100.00;101836.77;107507;1263;61250;-73
2023/01/03 07:09:44;;;;;;;134.90;69.20;;;;;;;-0.27;100.00;101843.27;107482;1262;61140;-75
2023/01/03 07:14:58;;;;;;;81.00;43.20;;;;;;;-0.11;100.00;101848.77;107562;1260;71256;-75
2023/01/03 07:17:25;;;;;;;80.20;40.10;;;;;;;-0.01;100.00;101853.63;107489;1262;70004;-75
2023/01/03 07:19:53;;;;;;;83.20;44.70;;;;;;;-0.00;100.00;101855.33;107422;1265;72763;-76
2023/01/03 07:22:20;;;;;;;88.50;48.80;;;;;;;0.02;100.00;101854.13;107518;1265;59624;-75
2023/01/03 07:24:47;;;;;;;86.40;50.00;;;;;;;0.16;100.00;101855.15;107486;1266;60370;-73
2023/01/03 07:27:15;;;;;;;94.50;50.70;;;;;;;0.23;100.00;101858.51;107520;1258;71202;-74
2023/01/03 07:29:42;;;;;;;108.30;58.00;;;;;;;0.36;100.00;101859.21;107540;1258;72113;-75
2023/01/03 07:32:10;;;;;;;93.10;52.80;;;;;;;0.35;100.00;101864.38;107461;1262;70445;-73
2023/01/03 07:34:37;;;;;;;101.30;57.80;;;;;;;0.35;100.00;101869.52;107355;1263;71836;-73
2023/01/03 07:37:04;;;;;;;92.10;53.30;;;;;;;0.43;100.00;101874.89;107403;1266;61138;-73
2023/01/03 07:39:32;;;;;;;98.10;57.60;;;;;;;0.50;100.00;101871.73;107331;1264;59418;-74
2023/01/03 07:44:45;;;;;;;92.90;54.70;;;;;;;0.67;100.00;101873.74;107364;1262;70074;-73
2023/01/03 07:47:12;;;;;;;89.70;54.90;;;;;;;0.77;100.00;101878.24;107284;1272;70438;-73
2023/01/03 07:49:40;;;;;;;91.80;55.60;;;;;;;0.87;100.00;101874.52;107322;1262;73743;-71
2023/01/03 07:52:07;;;;;;;86.40;53.10;;;;;;;1.01;100.00;101873.28;107321;1270;60313;-75
2023/01/03 07:54:34;;;;;;;94.00;55.20;;;;;;;1.13;100.00;101876.55;107327;1271;61174;-73
2023/01/03 07:57:02;;;;;;;90.40;54.30;;;;;;;1.24;100.00;101878.43;107353;1262;72125;-73
2023/01/03 07:59:29;;;;;;;87.50;53.00;;;;;;;1.38;100.00;101877.02;107437;1257;71523;-73
2023/01/03 08:01:57;;;;;;;95.60;56.40;;;;;;;1.56;100.00;101880.52;107477;1262;70576;-72
2023/01/03 08:04:24;;;;;;;84.80;50.70;;;;;;;1.62;100.00;101882.83;107238;1258;73699;-71
2023/01/03 08:06:52;;;;;;;75.50;46.60;;;;;;;1.76;100.00;101883.61;107325;1262;61925;-69
2023/01/03 08:14:50;;;;;;;78.40;46.40;;;;;;;2.11;100.00;101886.95;107402;1266;72401;-68
2023/01/03 08:17:18;;;;;;;70.70;45.70;;;;;;;2.26;100.00;101888.71;107382;1268;69683;-68
2023/01/03 08:19:45;;;;;;;81.30;50.90;;;;;;;2.38;100.00;101888.32;107199;1272;72252;-73
2023/01/03 08:22:13;;;;;;;79.00;43.80;;;;;;;2.45;100.00;101892.33;107337;1266;61160;-78
2023/01/03 08:24:40;;;;;;;87.90;51.70;;;;;;;2.67;100.00;101891.52;107332;1263;58144;-72
2023/01/03 08:27:07;;;;;;;89.50;52.80;;;;;;;2.75;100.00;101896.02;107403;1266;73433;-72
2023/01/03 08:29:35;;;;;;;73.10;45.20;;;;;;;2.86;100.00;101898.52;107596;1261;70076;-77
2023/01/03 08:32:03;;;;;;;87.60;53.70;;;;;;;2.86;100.00;101899.38;107494;1262;70375;-75
2023/01/03 08:34:35;;;;;;;71.50;43.90;;;;;;;2.83;100.00;101896.51;107401;1261;72266;-73
2023/01/03 08:37:09;;;;;;;60.30;38.10;;;;;;;2.81;100.00;101895.36;107466;1258;57612;-73
2023/01/03 08:39:58;;;;;;;64.40;39.00;;;;;;;2.86;100.00;101897.98;107427;1266;57207;-74
2023/01/03 08:42:26;;;;;;;73.80;45.20;;;;;;;2.93;100.00;101895.79;107576;1262;62992;-77
2023/01/03 08:45:07;;;;;;;73.30;43.70;;;;;;;2.94;100.00;101892.31;107429;1260;61584;-74
2023/01/03 08:47:35;;;;;;;63.00;41.10;;;;;;;2.92;100.00;101888.23;107568;1272;60864;-73
2023/01/03 08:50:03;;;;;;;66.80;43.80;;;;;;;2.96;100.00;101888.15;107468;1262;73878;-74
2023/01/03 08:52:31;;;;;;;59.60;38.40;;;;;;;3.05;100.00;101886.07;107551;1257;57545;-72
2023/01/03 08:55:04;;;;;;;55.80;37.70;;;;;;;3.10;99.98;101886.11;107514;1272;57159;-75
2023/01/03 08:57:32;;;;;;;60.90;36.20;;;;;;;3.11;100.00;101881.61;107238;1264;72138;-75
2023/01/03 08:59:59;;;;;;;56.20;34.40;;;;;;;3.12;100.00;101883.15;107445;1257;69493;-74
2023/01/03 09:02:26;;;;;;;55.80;38.00;;;;;;;3.14;100.00;101881.21;107449;1257;70337;-76
2023/01/03 09:04:55;;;;;;;64.90;41.50;;;;;;;3.13;100.00;101874.34;107428;1270;72127;-73
2023/01/03 09:07:23;;;;;;;65.00;41.70;;;;;;;3.24;100.00;101874.43;107400;1262;61200;-75
2023/01/03 09:09:50;;;;;;;65.70;42.40;;;;;;;3.42;100.00;101873.98;107490;1257;59990;-75
2023/01/03 09:12:17;;;;;;;65.40;41.00;;;;;;;3.60;100.00;101871.66;107458;1261;72443;-73
2023/01/03 09:14:45;;;;;;;68.30;43.50;;;;;;;3.81;100.00;101860.80;107449;1262;71027;-73
2023/01/03 09:17:12;;;;;;;67.70;41.40;;;;;;;4.01;99.67;101865.10;107401;1267;69465;-73
2023/01/03 09:19:40;;;;;;;70.70;45.00;;;;;;;4.22;99.16;101871.61;107526;1257;72790;-80
2023/01/03 09:22:07;;;;;;;71.40;44.20;;;;;;;4.36;98.61;101868.98;107477;1270;58521;-74
2023/01/03 09:24:34;;;;;;;70.30;45.30;;;;;;;4.58;98.01;101872.33;107479;1262;60239;-74
2023/01/03 09:27:02;;;;;;;73.70;44.70;;;;;;;4.75;96.81;101872.84;107510;1265;63262;-74
2023/01/03 09:29:29;;;;;;;70.90;42.70;;;;;;;4.93;97.12;101864.20;107614;1257;72115;-74
2023/01/03 09:32:00;;;;;;;64.70;41.20;;;;;;;5.08;96.82;101864.27;107500;1266;68662;-75
2023/01/03 09:34:27;;;;;;;63.00;39.30;;;;;;;5.25;96.41;101864.08;107453;1262;62440;-73
2023/01/03 09:36:55;;;;;;;68.60;40.00;;;;;;;5.48;96.16;101867.64;107526;1262;57623;-75
2023/01/03 09:39:22;;;;;;;61.80;38.40;;;;;;;5.68;97.28;101869.55;107550;1266;57879;-74
2023/01/03 09:43:11;;;;;;;60.90;39.00;;;;;;;5.80;94.49;101865.35;107497;1263;72688;-74
2023/01/03 09:44:39;;;;;;;64.90;40.00;;;;;;;6.04;95.27;101866.62;107604;1266;61365;-75
2023/01/03 09:47:19;;;;;;;65.40;42.50;;;;;;;6.24;95.34;101860.02;107369;1274;59950;-77
2023/01/03 09:49:47;;;;;;;69.20;43.20;;;;;;;6.38;92.43;101860.25;107477;1267;63783;-75
2023/01/03 10:03:42;;;;;;;80.30;49.60;;;;;;;6.79;92.45;101854.73;107523;1265;58043;-75
2023/01/03 10:05:23;;;;;;;65.60;40.90;;;;;;;7.36;89.50;101848.98;107490;1265;70599;-73
2023/01/03 10:08:18;;;;;;;60.70;35.80;;;;;;;7.56;88.15;101844.54;107444;1260;64221;-75
2023/01/03 10:11:10;;;;;;;59.30;35.60;;;;;;;7.62;87.37;101846.17;107494;1266;57643;-76
2023/01/03 10:14:04;;;;;;;62.70;37.30;;;;;;;7.67;87.82;101848.90;107609;1265;57681;-74
2023/01/03 10:16:50;;;;;;;68.00;38.30;;;;;;;7.80;87.48;101842.47;107629;1260;73313;-73
2023/01/03 10:19:51;;;;;;;74.00;40.40;;;;;;;7.89;87.26;101842.11;107687;1267;62098;-75
2023/01/03 10:22:27;;;;;;;54.10;35.00;;;;;;;7.94;87.29;101837.69;107546;1262;59080;-74
2023/01/03 10:25:13;;;;;;;55.20;34.60;;;;;;;8.01;87.37;101838.64;107503;1269;63262;-74
2023/01/03 10:28:06;;;;;;;54.40;35.30;;;;;;;8.05;87.82;101838.64;107444;1267;62591;-75
2023/01/03 10:31:20;;;;;;;52.00;35.50;;;;;;;8.13;87.89;101837.75;107407;1263;61708;-75
2023/01/03 10:33:49;;;;;;;59.20;37.10;;;;;;;8.29;88.99;101835.99;107520;1258;63391;-74
2023/01/03 10:36:20;;;;;;;59.30;37.90;;;;;;;8.52;89.59;101831.50;107493;1262;63403;-75
2023/01/03 10:39:02;;;;;;;59.00;37.90;;;;;;;8.86;88.94;101828.52;107502;1266;70177;-77
2023/01/03 10:41:51;;;;;;;57.80;38.40;;;;;;;9.13;88.91;101827.23;107388;1263;74278;-74
2023/01/03 10:44:25;;;;;;;54.90;37.20;;;;;;;9.38;86.36;101829.80;107471;1261;61296;-76
2023/01/03 10:46:57;;;;;;;56.40;39.00;;;;;;;9.67;85.97;101826.44;107545;1262;61008;-75
2023/01/03 10:49:30;;;;;;;56.00;37.10;;;;;;;9.84;80.50;101820.39;107394;1265;73064;-74
2023/01/03 10:52:15;;;;;;;55.60;37.10;;;;;;;10.16;84.55;101820.42;107614;1257;61868;-76
2023/01/03 10:54:48;;;;;;;49.20;32.30;;;;;;;10.51;84.49;101820.30;107441;1269;59894;-76
2023/01/03 10:57:45;;;;;;;49.50;34.50;;;;;;;10.88;82.22;101819.34;107525;1271;63772;-70
2023/01/03 11:00:37;;;;;;;63.60;40.60;;;;;;;10.69;76.98;101816.73;107442;1265;57084;-73
2023/01/03 11:03:21;;;;;;;49.90;34.70;;;;;;;11.01;80.46;101815.44;107386;1269;57697;-72
2023/01/03 11:06:14;;;;;;;52.10;36.30;;;;;;;11.35;80.84;101809.66;107440;1262;73223;-73
2023/01/03 11:09:03;;;;;;;49.10;35.50;;;;;;;11.68;76.18;101806.00;107537;1270;72477;-73
2023/01/03 11:11:41;;;;;;;50.00;34.60;;;;;;;11.90;74.42;101800.86;107438;1272;59508;-73
2023/01/03 11:14:14;;;;;;;48.90;33.80;;;;;;;12.18;73.36;101796.70;107499;1260;62433;-73
2023/01/03 11:16:42;;;;;;;48.10;32.80;;;;;;;12.30;73.45;101794.19;107544;1257;60507;-73
2023/01/03 11:19:17;;;;;;;44.90;31.90;;;;;;;12.48;73.71;101790.81;107509;1262;57713;-72
2023/01/03 11:21:55;;;;;;;44.20;31.20;;;;;;;12.65;73.63;101787.62;107628;1257;74209;-75
2023/01/03 11:24:50;;;;;;;47.90;32.80;;;;;;;12.74;71.76;101784.92;107674;1260;72035;-72
2023/01/03 11:28:02;;;;;;;38.60;29.40;;;;;;;12.79;71.65;101791.59;107426;1257;69505;-74
2023/01/03 11:30:44;;;;;;;39.30;28.60;;;;;;;13.07;72.15;101787.81;107519;1265;62933;-76
2023/01/03 11:33:26;;;;;;;40.80;29.00;;;;;;;13.36;69.00;101785.63;107536;1273;57313;-74
2023/01/03 11:36:34;;;;;;;44.60;32.80;;;;;;;13.40;68.39;101786.37;107504;1263;57318;-75
2023/01/03 11:39:14;;;;;;;37.30;27.30;;;;;;;13.43;69.41;101782.18;107521;1262;62875;-74
2023/01/03 11:42:28;;;;;;;41.80;28.40;;;;;;;13.55;68.72;101779.44;107545;1257;72250;-74
2023/01/03 11:45:44;;;;;;;38.60;28.00;;;;;;;13.57;71.00;101778.75;107413;1272;69106;-75
2023/01/03 11:48:42;;;;;;;37.20;27.70;;;;;;;13.78;71.02;101776.60;107436;1255;62702;-77
2023/01/03 11:51:44;;;;;;;40.80;29.30;;;;;;;14.16;70.11;101776.75;107389;1262;61058;-77
2023/01/03 11:54:19;;;;;;;38.50;27.70;;;;;;;14.37;69.16;101774.05;107498;1262;57208;-74
2023/01/03 11:56:49;;;;;;;38.70;28.60;;;;;;;14.75;67.77;101778.33;107311;1262;73620;-73
2023/01/03 11:59:50;;;;;;;42.00;28.20;;;;;;;14.93;67.23;101782.43;107448;1266;71939;-73
2023/01/03 12:02:54;;;;;;;38.00;26.20;;;;;;;15.19;64.90;101777.70;107341;1262;69930;-72
2023/01/03 12:05:42;;;;;;;34.10;25.50;;;;;;;15.29;63.16;101773.10;107434;1262;73771;-74
2023/01/03 12:08:32;;;;;;;36.20;26.70;;;;;;;15.31;61.61;101772.10;107315;1265;57591;-74
2023/01/03 12:11:11;;;;;;;37.90;27.40;;;;;;;15.05;60.17;101773.98;107487;1262;61166;-71
2023/01/03 12:14:07;;;;;;;41.20;28.80;;;;;;;15.19;60.55;101770.13;107328;1275;73177;-76
2023/01/03 12:17:03;;;;;;;39.80;27.90;;;;;;;15.55;61.31;101768.34;107449;1266;61191;-74
2023/01/03 12:20:01;;;;;;;34.80;24.50;;;;;;;16.11;62.35;101772.42;107450;1263;68029;-76
2023/01/03 12:22:48;;;;;;;34.80;25.70;;;;;;;16.18;57.69;101770.45;107400;1260;73816;-75
2023/01/03 12:25:35;;;;;;;30.90;23.30;;;;;;;16.58;61.27;101772.55;107444;1267;58206;-74
2023/01/03 12:28:10;;;;;;;30.40;22.10;;;;;;;17.00;57.35;101768.93;107403;1262;57769;-73
2023/01/03 12:30:49;;;;;;;33.60;24.60;;;;;;;17.17;53.98;101769.44;107469;1271;62125;-75
2023/01/03 12:33:30;;;;;;;40.50;24.20;;;;;;;16.78;52.97;101772.31;107576;1266;61722;-74
2023/01/03 12:36:28;;;;;;;31.10;22.70;;;;;;;17.27;55.21;101773.20;107402;1265;70432;-73
2023/01/03 12:39:30;;;;;;;21.20;15.30;;;;;;;17.17;53.48;101773.80;107327;1270;63661;-74
2023/01/03 12:42:31;;;;;;;13.90;10.80;;;;;;;16.76;53.30;101772.07;107431;1265;57373;-75